sensor_id;sensor_type;location;lat;lon;timestamp;pressure;altitude;pressure_sealevel;temperature;humidity
16834;BME280;8533;48.426;10.868;2023-04-20T00:01:49;96067.79;;;3.81;100.00
16834;BME280;8533;48.426;10.868;2023-04-20T00:04:17;96062.94;;;3.76;100.00
16834;BME280;8533;48.426;10.868;2023-04-20T00:06:45;96060.66;;;3.77;100.00
16834;BME280;8533;48.426;10.868;2023-04-20T00:09:13;96062.94;;;3.76;100.00
16834;BME280;8533;48.426;10.868;2023-04-20T00:11:42;96059.66;;;3.78;100.00
16834;BME280;8533;48.426;10.868;2023-04-20T00:14:09;96051.61;;;3.77;100.00
16834;BME280;8533;48.426;10.868;2023-04-20T00:16:37;96041.66;;;3.80;100.00
16834;BME280;8533;48.426;10.868;2023-04-20T00:19:04;96046.03;;;3.80;100.00
16834;BME280;8533;48.426;10.868;2023-04-20T00:21:33;96041.23;;;3.83;100.00
16834;BME280;8533;48.426;10.868;2023-04-20T00:24:01;96040.44;;;3.83;100.00
16834;BME280;8533;48.426;10.868;2023-04-20T00:26:28;96035.55;;;3.84;100.00
16834;BME280;8533;48.426;10.868;2023-04-20T00:28:56;96029.59;;;3.83;100.00
16834;BME280;8533;48.426;10.868;2023-04-20T00:31:23;96024.02;;;3.87;100.00
16834;BME280;8533;48.426;10.868;2023-04-20T00:33:50;96012.97;;;3.89;100.00
16834;BME280;8533;48.426;10.868;2023-04-20T00:36:18;96009.45;;;3.92;100.00
16834;BME280;8533;48.426;10.868;2023-04-20T00:38:45;96011.94;;;3.96;100.00
16834;BME280;8533;48.426;10.868;2023-04-20T00:41:13;96007.26;;;3.96;100.00
16834;BME280;8533;48.426;10.868;2023-04-20T00:43:55;95998.00;;;3.97;100.00
16834;BME280;8533;48.426;10.868;2023-04-20T00:46:19;95994.19;;;4.00;100.00
16834;BME280;8533;48.426;10.868;2023-04-20T00:48:49;95989.20;;;4.05;100.00
16834;BME280;8533;48.426;10.868;2023-04-20T00:51:18;95989.61;;;4.02;100.00
16834;BME280;8533;48.426;10.868;2023-04-20T00:53:46;95989.77;;;4.07;100.00
16834;BME280;8533;48.426;10.868;2023-04-20T00:56:14;95984.69;;;4.09;100.00
16834;BME280;8533;48.426;10.868;2023-04-20T00:58:45;95978.88;;;4.14;100.00
16834;BME280;8533;48.426;10.868;2023-04-20T01:01:13;95983.14;;;4.17;100.00
16834;BME280;8533;48.426;10.868;2023-04-20T01:03:43;95978.56;;;4.19;100.00
16834;BME280;8533;48.426;10.868;2023-04-20T01:06:13;95972.89;;;4.20;100.00
16834;BME280;8533;48.426;10.868;2023-04-20T01:08:49;95978.36;;;4.21;100.00
16834;BME280;8533;48.426;10.868;2023-04-20T01:11:16;95974.68;;;4.19;100.00
16834;BME280;8533;48.426;10.868;2023-04-20T01:13:44;95965.62;;;4.19;100.00
16834;BME280;8533;48.426;10.868;2023-04-20T01:16:11;95965.62;;;4.19;100.00
16834;BME280;8533;48.426;10.868;2023-04-20T01:18:44;95968.80;;;4.21;100.00
16834;BME280;8533;48.426;10.868;2023-04-20T01:21:14;95962.44;;;4.17;100.00
16834;BME280;8533;48.426;10.868;2023-04-20T01:23:44;95957.06;;;4.19;100.00
16834;BME280;8533;48.426;10.868;2023-04-20T01:26:15;95951.09;;;4.18;100.00
16834;BME280;8533;48.426;10.868;2023-04-20T01:28:43;95954.68;;;4.17;100.00
16834;BME280;8533;48.426;10.868;2023-04-20T01:31:11;95957.56;;;4.18;100.00
16834;BME280;8533;48.426;10.868;2023-04-20T01:33:39;95954.18;;;4.18;100.00
16834;BME280;8533;48.426;10.868;2023-04-20T01:36:07;95955.56;;;4.20;100.00
16834;BME280;8533;48.426;10.868;2023-04-20T01:38:35;95948.59;;;4.21;100.00
16834;BME280;8533;48.426;10.868;2023-04-20T01:41:05;95943.44;;;4.14;100.00
16834;BME280;8533;48.426;10.868;2023-04-20T01:43:34;95946.02;;;4.05;100.00
16834;BME280;8533;48.426;10.868;2023-04-20T01:46:02;95943.03;;;4.02;100.00
16834;BME280;8533;48.426;10.868;2023-04-20T01:48:30;95943.19;;;4.07;100.00
16834;BME280;8533;48.426;10.868;2023-04-20T01:50:57;95941.49;;;4.10;100.00
16834;BME280;8533;48.426;10.868;2023-04-20T01:53:25;95935.67;;;4.14;100.00
16834;BME280;8533;48.426;10.868;2023-04-20T01:55:53;95936.97;;;4.14;100.00
16834;BME280;8533;48.426;10.868;2023-04-20T01:58:20;95930.05;;;4.08;100.00
16834;BME280;8533;48.426;10.868;2023-04-20T02:00:48;95921.20;;;4.07;100.00
16834;BME280;8533;48.426;10.868;2023-04-20T02:03:15;95921.48;;;3.92;100.00
16834;BME280;8533;48.426;10.868;2023-04-20T02:05:42;95920.04;;;3.87;100.00
16834;BME280;8533;48.426;10.868;2023-04-20T02:08:10;95921.08;;;3.79;100.00
16834;BME280;8533;48.426;10.868;2023-04-20T02:10:37;95922.28;;;3.77;100.00
16834;BME280;8533;48.426;10.868;2023-04-20T02:13:05;95917.91;;;3.77;100.00
16834;BME280;8533;48.426;10.868;2023-04-20T02:15:32;95920.89;;;3.74;100.00
16834;BME280;8533;48.426;10.868;2023-04-20T02:17:59;95923.41;;;3.72;100.00
16834;BME280;8533;48.426;10.868;2023-04-20T02:20:27;95919.94;;;3.69;100.00
16834;BME280;8533;48.426;10.868;2023-04-20T02:22:55;95920.17;;;3.61;100.00
16834;BME280;8533;48.426;10.868;2023-04-20T02:25:22;95923.66;;;3.57;100.00
16834;BME280;8533;48.426;10.868;2023-04-20T02:27:50;95924.88;;;3.55;100.00
16834;BME280;8533;48.426;10.868;2023-04-20T02:30:17;95925.58;;;3.53;100.00
16834;BME280;8533;48.426;10.868;2023-04-20T02:32:45;95915.54;;;3.54;100.00
16834;BME280;8533;48.426;10.868;2023-04-20T02:35:12;95918.33;;;3.52;100.00
16834;BME280;8533;48.426;10.868;2023-04-20T02:37:41;95921.70;;;3.53;100.00
16834;BME280;8533;48.426;10.868;2023-04-20T02:40:09;95924.42;;;3.49;100.00
16834;BME280;8533;48.426;10.868;2023-04-20T02:42:37;95915.14;;;3.50;100.00
16834;BME280;8533;48.426;10.868;2023-04-20T02:45:06;95915.47;;;3.44;100.00
16834;BME280;8533;48.426;10.868;2023-04-20T02:47:33;95911.20;;;3.48;100.00
16834;BME280;8533;48.426;10.868;2023-04-20T02:50:01;95909.02;;;3.44;100.00
16834;BME280;8533;48.426;10.868;2023-04-20T02:52:29;95900.86;;;3.41;100.00
16834;BME280;8533;48.426;10.868;2023-04-20T02:54:56;95903.98;;;3.40;100.00
16834;BME280;8533;48.426;10.868;2023-04-20T02:57:24;95899.66;;;3.43;100.00
16834;BME280;8533;48.426;10.868;2023-04-20T02:59:51;95891.91;;;3.43;100.00
16834;BME280;8533;48.426;10.868;2023-04-20T03:02:18;95887.94;;;3.41;100.00
16834;BME280;8533;48.426;10.868;2023-04-20T03:04:46;95886.94;;;3.42;100.00
16834;BME280;8533;48.426;10.868;2023-04-20T03:07:14;95884.49;;;3.38;100.00
16834;BME280;8533;48.426;10.868;2023-04-20T03:09:42;95890.95;;;3.38;100.00
16834;BME280;8533;48.426;10.868;2023-04-20T03:12:10;95892.64;;;3.35;100.00
16834;BME280;8533;48.426;10.868;2023-04-20T03:14:37;95891.35;;;3.35;100.00
16834;BME280;8533;48.426;10.868;2023-04-20T03:17:05;95890.75;;;3.33;100.00
16834;BME280;8533;48.426;10.868;2023-04-20T03:19:32;95883.63;;;3.28;100.00
16834;BME280;8533;48.426;10.868;2023-04-20T03:22:00;95872.10;;;3.31;100.00
16834;BME280;8533;48.426;10.868;2023-04-20T03:24:27;95877.87;;;3.26;100.00
16834;BME280;8533;48.426;10.868;2023-04-20T03:26:54;95870.91;;;3.27;100.00
16834;BME280;8533;48.426;10.868;2023-04-20T03:29:22;95872.70;;;3.26;100.00
16834;BME280;8533;48.426;10.868;2023-04-20T03:31:50;95872.23;;;3.20;100.00
16834;BME280;8533;48.426;10.868;2023-04-20T03:34:18;95870.25;;;3.22;100.00
16834;BME280;8533;48.426;10.868;2023-04-20T03:36:45;95869.82;;;3.25;100.00
16834;BME280;8533;48.426;10.868;2023-04-20T03:39:13;95867.53;;;3.26;100.00
16834;BME280;8533;48.426;10.868;2023-04-20T03:41:40;95866.63;;;3.30;100.00
16834;BME280;8533;48.426;10.868;2023-04-20T03:44:08;95870.41;;;3.27;100.00
16834;BME280;8533;48.426;10.868;2023-04-20T03:46:35;95875.48;;;3.25;100.00
16834;BME280;8533;48.426;10.868;2023-04-20T03:49:03;95872.90;;;3.25;100.00
16834;BME280;8533;48.426;10.868;2023-04-20T03:51:32;95870.45;;;3.21;100.00
16834;BME280;8533;48.426;10.868;2023-04-20T03:53:59;95863.29;;;3.23;100.00
16834;BME280;8533;48.426;10.868;2023-04-20T03:56:26;95860.20;;;3.23;100.00
16834;BME280;8533;48.426;10.868;2023-04-20T03:58:54;95861.07;;;3.26;100.00
16834;BME280;8533;48.426;10.868;2023-04-20T04:01:21;95864.16;;;3.26;100.00
16834;BME280;8533;48.426;10.868;2023-04-20T04:03:49;95859.41;;;3.23;100.00
16834;BME280;8533;48.426;10.868;2023-04-20T04:06:16;95852.56;;;3.19;100.00
16834;BME280;8533;48.426;10.868;2023-04-20T04:08:44;95847.78;;;3.23;100.00
16834;BME280;8533;48.426;10.868;2023-04-20T04:11:11;95848.64;;;3.26;100.00
16834;BME280;8533;48.426;10.868;2023-04-20T04:13:38;95844.70;;;3.23;100.00
16834;BME280;8533;48.426;10.868;2023-04-20T04:16:06;95845.11;;;3.20;100.00
16834;BME280;8533;48.426;10.868;2023-04-20T04:18:33;95842.81;;;3.21;100.00
16834;BME280;8533;48.426;10.868;2023-04-20T04:21:01;95844.27;;;3.26;100.00
16834;BME280;8533;48.426;10.868;2023-04-20T04:23:28;95842.41;;;3.24;100.00
16834;BME280;8533;48.426;10.868;2023-04-20T04:25:56;95850.27;;;3.20;100.00
16834;BME280;8533;48.426;10.868;2023-04-20T04:28:24;95845.41;;;3.21;100.00
16834;BME280;8533;48.426;10.868;2023-04-20T04:30:51;95851.36;;;3.22;100.00
16834;BME280;8533;48.426;10.868;2023-04-20T04:33:20;95844.27;;;3.26;100.00
16834;BME280;8533;48.426;10.868;2023-04-20T04:35:48;95842.62;;;3.23;100.00
16834;BME280;8533;48.426;10.868;2023-04-20T04:38:16;95841.52;;;3.21;100.00
16834;BME280;8533;48.426;10.868;2023-04-20T04:40:43;95846.70;;;3.21;100.00
16834;BME280;8533;48.426;10.868;2023-04-20T04:43:14;95841.33;;;3.23;100.00
16834;BME280;8533;48.426;10.868;2023-04-20T04:45:42;95848.58;;;3.23;100.00
16834;BME280;8533;48.426;10.868;2023-04-20T04:48:10;95847.85;;;3.25;100.00
16834;BME280;8533;48.426;10.868;2023-04-20T04:50:38;95843.58;;;3.28;100.00
16834;BME280;8533;48.426;10.868;2023-04-20T04:53:06;95835.53;;;3.27;100.00
16834;BME280;8533;48.426;10.868;2023-04-20T04:55:33;95842.28;;;3.28;100.00
16834;BME280;8533;48.426;10.868;2023-04-20T04:58:01;95836.32;;;3.28;100.00
16834;BME280;8533;48.426;10.868;2023-04-20T05:00:28;95839.11;;;3.26;100.00
16834;BME280;8533;48.426;10.868;2023-04-20T05:02:57;95832.78;;;3.22;100.00
16834;BME280;8533;48.426;10.868;2023-04-20T05:05:25;95828.11;;;3.22;100.00
16834;BME280;8533;48.426;10.868;2023-04-20T05:07:53;95831.19;;;3.21;100.00
16834;BME280;8533;48.426;10.868;2023-04-20T05:10:21;95831.19;;;3.21;100.00
16834;BME280;8533;48.426;10.868;2023-04-20T05:12:48;95831.35;;;3.26;100.00
16834;BME280;8533;48.426;10.868;2023-04-20T05:15:18;95836.52;;;3.26;100.00
16834;BME280;8533;48.426;10.868;2023-04-20T05:17:45;95834.13;;;3.31;100.00
16834;BME280;8533;48.426;10.868;2023-04-20T05:20:14;95841.55;;;3.37;100.00
16834;BME280;8533;48.426;10.868;2023-04-20T05:22:43;95840.16;;;3.34;100.00
16834;BME280;8533;48.426;10.868;2023-04-20T05:25:10;95845.22;;;3.38;100.00
16834;BME280;8533;48.426;10.868;2023-04-20T05:27:39;95840.75;;;3.36;100.00
16834;BME280;8533;48.426;10.868;2023-04-20T05:30:07;95843.04;;;3.35;100.00
16834;BME280;8533;48.426;10.868;2023-04-20T05:32:34;95844.12;;;3.37;100.00
16834;BME280;8533;48.426;10.868;2023-04-20T05:35:02;95839.06;;;3.39;100.00
16834;BME280;8533;48.426;10.868;2023-04-20T05:37:30;95840.59;;;3.31;100.00
16834;BME280;8533;48.426;10.868;2023-04-20T05:39:58;95841.05;;;3.37;100.00
16834;BME280;8533;48.426;10.868;2023-04-20T05:42:26;95839.85;;;3.40;100.00
16834;BME280;8533;48.426;10.868;2023-04-20T05:44:53;95836.34;;;3.43;100.00
16834;BME280;8533;48.426;10.868;2023-04-20T05:47:22;95840.91;;;3.41;100.00
16834;BME280;8533;48.426;10.868;2023-04-20T05:49:49;95836.09;;;3.52;100.00
16834;BME280;8533;48.426;10.868;2023-04-20T05:52:16;95838.52;;;3.47;100.00
16834;BME280;8533;48.426;10.868;2023-04-20T05:54:44;95835.24;;;3.42;100.00
16834;BME280;8533;48.426;10.868;2023-04-20T05:57:11;95833.55;;;3.45;100.00
16834;BME280;8533;48.426;10.868;2023-04-20T05:59:39;95830.52;;;3.55;100.00
16834;BME280;8533;48.426;10.868;2023-04-20T06:02:08;95829.97;;;3.62;100.00
16834;BME280;8533;48.426;10.868;2023-04-20T06:04:35;95830.06;;;3.64;100.00
16834;BME280;8533;48.426;10.868;2023-04-20T06:07:03;95832.71;;;3.67;100.00
16834;BME280;8533;48.426;10.868;2023-04-20T06:09:31;95835.94;;;3.62;100.00
16834;BME280;8533;48.426;10.868;2023-04-20T06:11:59;95843.48;;;3.64;100.00
16834;BME280;8533;48.426;10.868;2023-04-20T06:14:27;95836.03;;;3.65;100.00
16834;BME280;8533;48.426;10.868;2023-04-20T06:16:56;95845.48;;;3.62;100.00
16834;BME280;8533;48.426;10.868;2023-04-20T06:19:23;95845.58;;;3.64;100.00
16834;BME280;8533;48.426;10.868;2023-04-20T06:21:51;95839.13;;;3.58;100.00
16834;BME280;8533;48.426;10.868;2023-04-20T06:24:18;95838.38;;;3.51;100.00
16834;BME280;8533;48.426;10.868;2023-04-20T06:26:48;95842.69;;;3.48;100.00
16834;BME280;8533;48.426;10.868;2023-04-20T06:29:15;95840.60;;;3.47;100.00
16834;BME280;8533;48.426;10.868;2023-04-20T06:31:43;95844.29;;;3.42;100.00
16834;BME280;8533;48.426;10.868;2023-04-20T06:34:16;95840.60;;;3.47;100.00
16834;BME280;8533;48.426;10.868;2023-04-20T06:36:45;95845.27;;;3.48;100.00
16834;BME280;8533;48.426;10.868;2023-04-20T06:39:12;95846.83;;;3.55;100.00
16834;BME280;8533;48.426;10.868;2023-04-20T06:41:42;95846.73;;;3.53;100.00
16834;BME280;8533;48.426;10.868;2023-04-20T06:44:09;95846.03;;;3.55;100.00
16834;BME280;8533;48.426;10.868;2023-04-20T06:46:37;95850.06;;;3.60;100.00
16834;BME280;8533;48.426;10.868;2023-04-20T06:49:05;95843.00;;;3.58;100.00
16834;BME280;8533;48.426;10.868;2023-04-20T06:51:32;95849.86;;;3.61;100.00
16834;BME280;8533;48.426;10.868;2023-04-20T06:54:00;95844.19;;;3.62;100.00
16834;BME280;8533;48.426;10.868;2023-04-20T06:56:28;95840.91;;;3.64;100.00
16834;BME280;8533;48.426;10.868;2023-04-20T06:58:56;95842.90;;;3.62;100.00
16834;BME280;8533;48.426;10.868;2023-04-20T07:01:23;95840.66;;;3.56;100.00
16834;BME280;8533;48.426;10.868;2023-04-20T07:03:50;95837.97;;;3.54;100.00
16834;BME280;8533;48.426;10.868;2023-04-20T07:06:18;95839.67;;;3.51;100.00
16834;BME280;8533;48.426;10.868;2023-04-20T07:08:46;95838.67;;;3.52;100.00
16834;BME280;8533;48.426;10.868;2023-04-20T07:11:14;95836.59;;;3.51;100.00
16834;BME280;8533;48.426;10.868;2023-04-20T07:13:41;95842.31;;;3.60;100.00
16834;BME280;8533;48.426;10.868;2023-04-20T07:16:08;95841.51;;;3.75;100.00
16834;BME280;8533;48.426;10.868;2023-04-20T07:18:36;95835.78;;;3.73;100.00
16834;BME280;8533;48.426;10.868;2023-04-20T07:21:03;95838.22;;;3.77;100.00
16834;BME280;8533;48.426;10.868;2023-04-20T07:23:31;95837.13;;;3.75;100.00
16834;BME280;8533;48.426;10.868;2023-04-20T07:25:59;95836.12;;;3.92;100.00
16834;BME280;8533;48.426;10.868;2023-04-20T07:28:27;95834.77;;;3.99;100.00
16834;BME280;8533;48.426;10.868;2023-04-20T07:30:55;95836.77;;;4.12;100.00
16834;BME280;8533;48.426;10.868;2023-04-20T07:33:22;95833.47;;;4.23;100.00
16834;BME280;8533;48.426;10.868;2023-04-20T07:35:50;95832.56;;;4.27;100.00
16834;BME280;8533;48.426;10.868;2023-04-20T07:38:19;95837.30;;;4.30;100.00
16834;BME280;8533;48.426;10.868;2023-04-20T07:40:46;95832.85;;;4.28;100.00
16834;BME280;8533;48.426;10.868;2023-04-20T07:43:14;95834.38;;;4.36;100.00
16834;BME280;8533;48.426;10.868;2023-04-20T07:45:41;95835.97;;;4.37;100.00
16834;BME280;8533;48.426;10.868;2023-04-20T07:48:10;95839.21;;;4.50;100.00
16834;BME280;8533;48.426;10.868;2023-04-20T07:50:38;95833.25;;;4.59;100.00
16834;BME280;8533;48.426;10.868;2023-04-20T07:53:06;95845.19;;;4.51;100.00
16834;BME280;8533;48.426;10.868;2023-04-20T07:55:33;95842.30;;;4.50;100.00
16834;BME280;8533;48.426;10.868;2023-04-20T07:58:02;95841.64;;;4.54;100.00
16834;BME280;8533;48.426;10.868;2023-04-20T08:00:30;95844.75;;;4.45;100.00
16834;BME280;8533;48.426;10.868;2023-04-20T08:02:57;95839.40;;;4.40;100.00
16834;BME280;8533;48.426;10.868;2023-04-20T08:05:25;95779.37;;;3.97;100.00
16834;BME280;8533;48.426;10.868;2023-04-20T08:07:53;95855.65;;;4.29;100.00
16834;BME280;8533;48.426;10.868;2023-04-20T08:10:21;95854.94;;;4.40;100.00
16834;BME280;8533;48.426;10.868;2023-04-20T08:12:48;95851.00;;;4.37;100.00
16834;BME280;8533;48.426;10.868;2023-04-20T08:15:16;95842.37;;;4.43;100.00
16834;BME280;8533;48.426;10.868;2023-04-20T08:17:44;95844.52;;;4.46;100.00
16834;BME280;8533;48.426;10.868;2023-04-20T08:20:12;95846.62;;;4.56;100.00
16834;BME280;8533;48.426;10.868;2023-04-20T08:22:39;95842.95;;;4.64;100.00
16834;BME280;8533;48.426;10.868;2023-04-20T08:25:07;95843.97;;;4.53;100.00
16834;BME280;8533;48.426;10.868;2023-04-20T08:27:35;95846.06;;;4.54;100.00
16834;BME280;8533;48.426;10.868;2023-04-20T08:30:03;95833.83;;;4.52;100.00
16834;BME280;8533;48.426;10.868;2023-04-20T08:32:31;95832.17;;;4.57;100.00
16834;BME280;8533;48.426;10.868;2023-04-20T08:34:58;95832.37;;;4.56;100.00
16834;BME280;8533;48.426;10.868;2023-04-20T08:37:27;95826.41;;;4.55;100.00
16834;BME280;8533;48.426;10.868;2023-04-20T08:39:54;95826.11;;;4.54;100.00
16834;BME280;8533;48.426;10.868;2023-04-20T08:42:22;95825.97;;;4.49;100.00
16834;BME280;8533;48.426;10.868;2023-04-20T08:44:49;95830.24;;;4.62;100.00
16834;BME280;8533;48.426;10.868;2023-04-20T08:47:17;95818.56;;;4.71;100.00
16834;BME280;8533;48.426;10.868;2023-04-20T08:49:45;95817.30;;;4.62;100.00
16834;BME280;8533;48.426;10.868;2023-04-20T08:52:15;95806.91;;;4.71;100.00
16834;BME280;8533;48.426;10.868;2023-04-20T08:54:42;95815.77;;;4.73;100.00
16834;BME280;8533;48.426;10.868;2023-04-20T08:57:10;95815.34;;;4.76;100.00
16834;BME280;8533;48.426;10.868;2023-04-20T08:59:38;95808.66;;;4.86;100.00
16834;BME280;8533;48.426;10.868;2023-04-20T09:02:12;95799.51;;;4.66;100.00
16834;BME280;8533;48.426;10.868;2023-04-20T09:04:39;95803.39;;;4.66;100.00
16834;BME280;8533;48.426;10.868;2023-04-20T09:07:17;95810.80;;;4.71;100.00
16834;BME280;8533;48.426;10.868;2023-04-20T09:09:55;95811.23;;;4.59;100.00
16834;BME280;8533;48.426;10.868;2023-04-20T09:12:22;95808.52;;;4.54;100.00
16834;BME280;8533;48.426;10.868;2023-04-20T09:14:53;95812.24;;;4.58;100.00
16834;BME280;8533;48.426;10.868;2023-04-20T09:17:36;95803.61;;;4.73;100.00
16834;BME280;8533;48.426;10.868;2023-04-20T09:20:06;95793.66;;;4.79;100.00
16834;BME280;8533;48.426;10.868;2023-04-20T09:22:35;95796.92;;;4.84;100.00
16834;BME280;8533;48.426;10.868;2023-04-20T09:25:16;95792.42;;;5.18;100.00
16834;BME280;8533;48.426;10.868;2023-04-20T09:28:05;95800.73;;;5.29;100.00
16834;BME280;8533;48.426;10.868;2023-04-20T09:30:13;95796.20;;;5.34;100.00
16834;BME280;8533;48.426;10.868;2023-04-20T09:32:41;95795.34;;;5.22;100.00
16834;BME280;8533;48.426;10.868;2023-04-20T09:35:08;95795.80;;;5.19;100.00
16834;BME280;8533;48.426;10.868;2023-04-20T09:37:45;95800.25;;;5.12;100.00
16834;BME280;8533;48.426;10.868;2023-04-20T09:40:08;95794.95;;;5.07;100.00
16834;BME280;8533;48.426;10.868;2023-04-20T09:42:37;95790.83;;;5.17;100.00
16834;BME280;8533;48.426;10.868;2023-04-20T09:45:06;95783.88;;;5.29;100.00
16834;BME280;8533;48.426;10.868;2023-04-20T09:47:34;95775.52;;;4.97;100.00
16834;BME280;8533;48.426;10.868;2023-04-20T09:50:03;95760.98;;;4.96;100.00
16834;BME280;8533;48.426;10.868;2023-04-20T09:52:33;95758.35;;;5.15;100.00
16834;BME280;8533;48.426;10.868;2023-04-20T09:55:03;95751.27;;;5.01;100.00
16834;BME280;8533;48.426;10.868;2023-04-20T09:57:33;95745.58;;;5.02;100.00
16834;BME280;8533;48.426;10.868;2023-04-20T10:00:02;95749.47;;;5.22;100.00
16834;BME280;8533;48.426;10.868;2023-04-20T10:02:31;95750.59;;;5.06;100.00
16834;BME280;8533;48.426;10.868;2023-04-20T10:04:59;95750.88;;;5.07;100.00
16834;BME280;8533;48.426;10.868;2023-04-20T10:07:30;95752.36;;;4.93;100.00
16834;BME280;8533;48.426;10.868;2023-04-20T10:10:12;95763.72;;;5.02;100.00
16834;BME280;8533;48.426;10.868;2023-04-20T10:12:50;95761.27;;;4.97;100.00
16834;BME280;8533;48.426;10.868;2023-04-20T10:15:14;95768.83;;;4.99;100.00
16834;BME280;8533;48.426;10.868;2023-04-20T10:17:43;95760.34;;;4.92;100.00
16834;BME280;8533;48.426;10.868;2023-04-20T10:20:25;95755.09;;;4.89;100.00
16834;BME280;8533;48.426;10.868;2023-04-20T10:22:52;95766.73;;;4.98;100.00
16834;BME280;8533;48.426;10.868;2023-04-20T10:25:23;95764.75;;;4.82;100.00
16834;BME280;8533;48.426;10.868;2023-04-20T10:27:58;95742.05;;;4.87;100.00
16834;BME280;8533;48.426;10.868;2023-04-20T10:30:26;95743.89;;;4.86;100.00
16834;BME280;8533;48.426;10.868;2023-04-20T10:33:08;95747.31;;;4.89;100.00
16834;BME280;8533;48.426;10.868;2023-04-20T10:35:53;95750.63;;;4.87;100.00
16834;BME280;8533;48.426;10.868;2023-04-20T10:38:35;95745.80;;;4.91;100.00
16834;BME280;8533;48.426;10.868;2023-04-20T10:41:08;95747.91;;;4.73;100.00
16834;BME280;8533;48.426;10.868;2023-04-20T10:43:35;95753.25;;;4.78;100.00
16834;BME280;8533;48.426;10.868;2023-04-20T10:46:26;95754.55;;;4.78;100.00
16834;BME280;8533;48.426;10.868;2023-04-20T10:48:58;95756.26;;;4.84;100.00
16834;BME280;8533;48.426;10.868;2023-04-20T10:51:27;95762.36;;;4.90;100.00
16834;BME280;8533;48.426;10.868;2023-04-20T10:54:02;95755.47;;;4.84;100.00
16834;BME280;8533;48.426;10.868;2023-04-20T10:59:10;95759.56;;;4.82;100.00
16834;BME280;8533;48.426;10.868;2023-04-20T11:01:38;95770.71;;;4.92;100.00
16834;BME280;8533;48.426;10.868;2023-04-20T11:04:07;95765.61;;;4.94;100.00
16834;BME280;8533;48.426;10.868;2023-04-20T11:06:40;95759.98;;;4.88;100.00
16834;BME280;8533;48.426;10.868;2023-04-20T11:09:23;95753.50;;;4.88;100.00
16834;BME280;8533;48.426;10.868;2023-04-20T11:12:03;95763.73;;;4.92;100.00
16834;BME280;8533;48.426;10.868;2023-04-20T11:14:31;95755.16;;;5.01;100.00
16834;BME280;8533;48.426;10.868;2023-04-20T11:17:00;95735.56;;;4.96;100.00
16834;BME280;8533;48.426;10.868;2023-04-20T11:19:32;95730.36;;;5.05;100.00
16834;BME280;8533;48.426;10.868;2023-04-20T11:22:02;95735.19;;;5.11;100.00
16834;BME280;8533;48.426;10.868;2023-04-20T11:24:31;95738.55;;;5.11;100.00
16834;BME280;8533;48.426;10.868;2023-04-20T11:27:04;95738.36;;;5.04;100.00
16834;BME280;8533;48.426;10.868;2023-04-20T11:29:33;95737.05;;;5.04;100.00
16834;BME280;8533;48.426;10.868;2023-04-20T11:32:03;95735.63;;;5.08;100.00
16834;BME280;8533;48.426;10.868;2023-04-20T11:34:32;95741.29;;;5.16;100.00
16834;BME280;8533;48.426;10.868;2023-04-20T11:37:07;95736.70;;;5.09;100.00
16834;BME280;8533;48.426;10.868;2023-04-20T11:39:37;95727.11;;;5.19;100.00
16834;BME280;8533;48.426;10.868;2023-04-20T11:42:04;95729.16;;;5.19;100.00
16834;BME280;8533;48.426;10.868;2023-04-20T11:44:31;95715.27;;;5.23;100.00
16834;BME280;8533;48.426;10.868;2023-04-20T11:47:00;95703.31;;;5.22;100.00
16834;BME280;8533;48.426;10.868;2023-04-20T11:49:29;95702.34;;;5.34;100.00
16834;BME280;8533;48.426;10.868;2023-04-20T11:51:57;95695.47;;;5.40;100.00
16834;BME280;8533;48.426;10.868;2023-04-20T11:54:25;95688.13;;;5.37;100.00
16834;BME280;8533;48.426;10.868;2023-04-20T11:56:54;95687.41;;;5.39;100.00
16834;BME280;8533;48.426;10.868;2023-04-20T11:59:22;95683.69;;;5.35;100.00
16834;BME280;8533;48.426;10.868;2023-04-20T12:01:50;95689.59;;;5.45;100.00
16834;BME280;8533;48.426;10.868;2023-04-20T12:04:17;95691.72;;;5.57;100.00
16834;BME280;8533;48.426;10.868;2023-04-20T12:06:45;95690.98;;;5.59;100.00
16834;BME280;8533;48.426;10.868;2023-04-20T12:09:13;95691.86;;;5.53;100.00
16834;BME280;8533;48.426;10.868;2023-04-20T12:11:41;95692.83;;;5.61;100.00
16834;BME280;8533;48.426;10.868;2023-04-20T12:14:08;95698.55;;;5.72;100.00
16834;BME280;8533;48.426;10.868;2023-04-20T12:16:36;95704.85;;;5.76;100.00
16834;BME280;8533;48.426;10.868;2023-04-20T12:19:04;95704.09;;;5.75;100.00
16834;BME280;8533;48.426;10.868;2023-04-20T12:21:31;95708.74;;;5.76;100.00
16834;BME280;8533;48.426;10.868;2023-04-20T12:23:59;95716.38;;;5.80;100.00
16834;BME280;8533;48.426;10.868;2023-04-20T12:26:27;95714.33;;;5.70;100.00
16834;BME280;8533;48.426;10.868;2023-04-20T12:28:56;95710.12;;;5.67;100.00
16834;BME280;8533;48.426;10.868;2023-04-20T12:31:23;95709.78;;;5.75;100.00
16834;BME280;8533;48.426;10.868;2023-04-20T12:33:51;95710.46;;;5.82;100.00
16834;BME280;8533;48.426;10.868;2023-04-20T12:36:18;95707.39;;;5.85;100.00
16834;BME280;8533;48.426;10.868;2023-04-20T12:38:49;95707.84;;;5.91;100.00
16834;BME280;8533;48.426;10.868;2023-04-20T12:41:19;95716.52;;;5.97;100.00
16834;BME280;8533;48.426;10.868;2023-04-20T12:43:48;95716.74;;;5.95;100.00
16834;BME280;8533;48.426;10.868;2023-04-20T12:46:16;95718.34;;;6.08;100.00
16834;BME280;8533;48.426;10.868;2023-04-20T12:48:45;95718.59;;;6.09;100.00
16834;BME280;8533;48.426;10.868;2023-04-20T12:51:13;95716.79;;;6.09;100.00
16834;BME280;8533;48.426;10.868;2023-04-20T12:53:41;95717.36;;;6.11;100.00
16834;BME280;8533;48.426;10.868;2023-04-20T12:56:08;95718.53;;;6.18;100.00
16834;BME280;8533;48.426;10.868;2023-04-20T12:58:37;95718.47;;;6.27;100.00
16834;BME280;8533;48.426;10.868;2023-04-20T13:01:04;95709.64;;;6.14;100.00
16834;BME280;8533;48.426;10.868;2023-04-20T13:03:32;95708.45;;;6.07;100.00
16834;BME280;8533;48.426;10.868;2023-04-20T13:05:59;95706.75;;;6.13;100.00
16834;BME280;8533;48.426;10.868;2023-04-20T13:08:28;95710.02;;;6.20;100.00
16834;BME280;8533;48.426;10.868;2023-04-20T13:10:55;95709.23;;;6.20;100.00